createdAt,value
2022-08-26T00:00:02.152Z,55.145
2022-08-26T00:07:02.049Z,54.378
2022-08-26T00:14:01.501Z,54.378
2022-08-26T00:21:01.588Z,54.229
2022-08-26T00:28:01.717Z,54.229
2022-08-26T00:35:02.417Z,54.287
2022-08-26T00:42:01.415Z,54.287
2022-08-26T00:49:01.686Z,55.043
2022-08-26T00:56:02.050Z,55.043
2022-08-26T01:00:01.649Z,56.28
2022-08-26T01:07:01.568Z,56.28
2022-08-26T01:14:01.471Z,57.634
2022-08-26T01:21:02.288Z,57.634
2022-08-26T01:28:01.377Z,59.078
2022-08-26T01:35:01.718Z,59.907
2022-08-26T01:42:03.054Z,59.907
2022-08-26T01:49:02.465Z,60.699
2022-08-26T01:56:01.821Z,60.699
2022-08-26T02:00:01.731Z,60.699
2022-08-26T02:07:01.683Z,61.414
2022-08-26T02:14:02.279Z,62.226
2022-08-26T02:21:02.165Z,62.226
2022-08-26T02:28:01.566Z,62.944
2022-08-26T02:35:02.420Z,62.944
2022-08-26T02:42:01.416Z,63.61
2022-08-26T02:49:01.449Z,63.61
2022-08-26T02:56:01.802Z,64.419
2022-08-26T03:00:01.783Z,64.419
2022-08-26T03:07:02.133Z,65.189
2022-08-26T03:14:03.682Z,65.189
2022-08-26T03:21:01.936Z,65.905
2022-08-26T03:28:01.967Z,65.905
2022-08-26T03:35:02.161Z,66.738
2022-08-26T03:42:02.323Z,66.738
2022-08-26T03:49:01.508Z,67.545
2022-08-26T03:56:02.259Z,67.545
2022-08-26T04:00:01.789Z,67.875
2022-08-26T04:07:02.111Z,67.875
2022-08-26T04:14:01.469Z,67.868
2022-08-26T04:21:02.195Z,67.868
2022-08-26T04:28:01.729Z,67.989
2022-08-26T04:35:02.072Z,67.989
2022-08-26T04:42:02.195Z,68.072
2022-08-26T04:49:02.000Z,68.313
2022-08-26T04:56:03.095Z,68.313
2022-08-26T05:00:01.956Z,68.313
2022-08-26T05:07:02.684Z,68.392
2022-08-26T05:14:02.561Z,68.508
2022-08-26T05:21:01.623Z,68.508
2022-08-26T05:28:01.583Z,68.514
2022-08-26T05:35:02.018Z,68.514
2022-08-26T05:42:01.588Z,68.756
2022-08-26T05:49:01.334Z,68.756
2022-08-26T05:56:02.178Z,68.697
2022-08-26T06:00:01.782Z,68.697
2022-08-26T06:07:01.359Z,68.861
2022-08-26T06:14:03.783Z,68.861
2022-08-26T06:21:01.475Z,68.658
2022-08-26T06:28:01.965Z,68.658
2022-08-26T06:35:02.102Z,68.498
2022-08-26T06:42:02.663Z,68.498
2022-08-26T06:49:01.927Z,68.459
2022-08-26T06:56:02.124Z,68.459
2022-08-26T07:00:01.639Z,68.204
2022-08-26T07:07:01.962Z,68.204
2022-08-26T07:14:02.054Z,68.174
2022-08-26T07:21:02.277Z,68.174
2022-08-26T07:28:01.387Z,68.288
2022-08-26T07:35:01.557Z,68.288
2022-08-26T07:42:01.621Z,68.346
2022-08-26T07:49:02.162Z,68.191
2022-08-26T07:56:02.256Z,68.191
2022-08-26T08:00:01.894Z,68.191
2022-08-26T08:07:02.306Z,68.152
2022-08-26T08:14:01.599Z,68.158
2022-08-26T08:21:21.200Z,68.158
2022-08-26T08:28:02.227Z,67.942
2022-08-26T08:35:01.874Z,67.942
2022-08-26T08:42:02.194Z,67.679
2022-08-26T08:49:01.900Z,67.679
2022-08-26T08:56:01.861Z,67.685
2022-08-26T09:00:02.471Z,67.685
2022-08-26T09:07:01.441Z,67.715
2022-08-26T09:14:01.461Z,67.715
2022-08-26T09:21:01.969Z,67.634
2022-08-26T09:28:01.396Z,67.634
2022-08-26T09:35:02.132Z,67.595
2022-08-26T09:42:01.825Z,67.595
2022-08-26T09:49:02.241Z,67.578
2022-08-26T09:56:01.870Z,67.578
2022-08-26T10:00:01.613Z,67.345
2022-08-26T10:07:01.716Z,67.345
2022-08-26T10:14:02.065Z,67.184
2022-08-26T10:21:01.463Z,67.184
2022-08-26T10:28:01.847Z,67.009
2022-08-26T10:35:01.829Z,67.009
2022-08-26T10:42:01.834Z,67.058
2022-08-26T10:49:03.193Z,66.734
2022-08-26T10:56:01.503Z,66.734
2022-08-26T11:00:02.146Z,66.734
2022-08-26T11:07:01.848Z,66.529
2022-08-26T11:14:01.967Z,66.529
2022-08-26T11:21:01.351Z,66.003
2022-08-26T11:28:01.568Z,65.833
2022-08-26T11:35:02.315Z,65.833
2022-08-26T11:42:01.819Z,65.613
2022-08-26T11:49:01.508Z,65.613
2022-08-26T11:56:01.728Z,65.417
2022-08-26T12:00:02.401Z,65.417
2022-08-26T12:07:02.322Z,65.157
2022-08-26T12:14:01.914Z,65.157
2022-08-26T12:21:01.511Z,64.938
2022-08-26T12:28:01.516Z,64.938
2022-08-26T12:42:01.786Z,64.513
2022-08-26T12:49:02.331Z,64.264
2022-08-26T12:56:02.009Z,64.264
2022-08-26T13:00:01.504Z,64.175
2022-08-26T13:07:01.861Z,64.175
2022-08-26T13:14:02.307Z,63.992
2022-08-26T13:21:01.381Z,63.992
2022-08-26T13:28:01.609Z,64.346
2022-08-26T13:35:05.782Z,64.346
2022-08-26T13:42:01.472Z,64.985
2022-08-26T13:49:01.422Z,65.318
2022-08-26T13:56:01.730Z,65.318
2022-08-26T14:00:02.400Z,65.318
2022-08-26T14:07:02.184Z,65.651
2022-08-26T14:14:01.685Z,65.651
2022-08-26T14:21:01.445Z,65.817
2022-08-26T14:28:02.213Z,65.928
2022-08-26T14:35:01.872Z,65.928
2022-08-26T14:42:01.587Z,66.014
2022-08-26T14:49:03.516Z,66.014
2022-08-26T14:56:01.750Z,65.87
2022-08-26T15:00:02.441Z,65.87
2022-08-26T15:07:01.895Z,65.709
2022-08-26T15:14:01.966Z,65.709
2022-08-26T15:21:01.999Z,65.156
2022-08-26T15:28:02.216Z,65.156
2022-08-26T15:35:05.531Z,64.963
2022-08-26T15:42:01.360Z,64.963
2022-08-26T15:49:01.508Z,64.525
2022-08-26T15:56:02.020Z,64.525
2022-08-26T16:00:01.907Z,64.496
2022-08-26T16:07:02.247Z,64.496
2022-08-26T16:14:01.768Z,64.239
2022-08-26T16:21:13.516Z,64.239
2022-08-26T16:28:01.562Z,64.086
2022-08-26T16:35:02.259Z,64.086
2022-08-26T16:42:01.881Z,63.959
2022-08-26T16:49:02.327Z,63.498
2022-08-26T16:56:02.094Z,63.498
2022-08-26T17:00:01.567Z,63.498
2022-08-26T17:07:02.026Z,63.474
2022-08-26T17:14:02.197Z,63.474
2022-08-26T17:21:02.201Z,63.559
2022-08-26T17:28:02.014Z,63.595
2022-08-26T17:35:02.044Z,63.595
2022-08-26T17:42:01.641Z,63.47
2022-08-26T17:49:01.510Z,63.47
2022-08-26T17:56:02.182Z,63.646
2022-08-26T18:00:01.826Z,63.646
2022-08-26T18:07:02.224Z,63.703
2022-08-26T18:14:01.357Z,63.703
2022-08-26T18:21:02.090Z,64.107
2022-08-26T18:28:01.824Z,64.107
2022-08-26T18:35:02.330Z,63.999
2022-08-26T18:42:01.364Z,63.999
2022-08-26T18:49:02.143Z,63.92
2022-08-26T18:56:02.086Z,63.92
2022-08-26T19:00:01.688Z,63.904
2022-08-26T19:07:01.769Z,63.904
2022-08-26T19:14:01.864Z,63.996
2022-08-26T19:21:01.371Z,63.996
2022-08-26T19:28:02.292Z,63.711
2022-08-26T19:35:02.011Z,63.711
2022-08-26T19:42:01.766Z,63.88
2022-08-26T19:49:01.557Z,63.875
2022-08-26T19:56:02.322Z,63.875
2022-08-26T20:00:01.866Z,63.875
2022-08-26T20:07:01.918Z,64.266
2022-08-26T20:14:01.942Z,64.266
2022-08-26T20:21:01.938Z,64.77
2022-08-26T20:28:01.691Z,64.861
2022-08-26T20:35:01.578Z,64.861
2022-08-26T20:42:02.155Z,64.983
2022-08-26T20:49:01.965Z,64.983
2022-08-26T20:56:02.292Z,64.518
2022-08-26T21:00:01.840Z,64.518
2022-08-26T21:07:01.492Z,64.31
2022-08-26T21:14:06.789Z,64.31
2022-08-26T21:21:01.629Z,64.232
2022-08-26T21:28:01.724Z,64.232
2022-08-26T21:35:02.178Z,64.377
2022-08-26T21:42:01.535Z,64.377
2022-08-26T21:49:01.527Z,64.411
2022-08-26T21:56:01.504Z,64.411
2022-08-26T22:00:04.575Z,64.58
2022-08-26T22:07:01.414Z,64.58
2022-08-26T22:14:02.291Z,64.975
2022-08-26T22:21:01.919Z,64.975
2022-08-26T22:28:01.779Z,65.549
2022-08-26T22:35:02.403Z,65.549
2022-08-26T22:42:01.483Z,66.099
2022-08-26T22:49:01.731Z,66.95
2022-08-26T22:56:02.280Z,66.95
2022-08-26T23:00:01.703Z,66.95
2022-08-26T23:07:01.619Z,67.681
2022-08-26T23:14:06.188Z,67.681
2022-08-26T23:21:02.082Z,68.454
2022-08-26T23:28:01.611Z,69.55
2022-08-26T23:35:02.559Z,69.55
2022-08-26T23:42:01.885Z,70.274
2022-08-26T23:49:01.577Z,70.274
2022-08-26T23:56:01.418Z,70.573
